createdAt,value
2019-02-06T00:00:53.403Z,2.30
2019-02-06T00:02:55.109Z,2.20
2019-02-06T00:04:57.113Z,2.30
2019-02-06T00:06:58.949Z,2.30
2019-02-06T00:09:00.769Z,2.20
2019-02-06T00:11:03.146Z,2.20
2019-02-06T00:13:05.603Z,2.20
2019-02-06T00:15:07.598Z,2.20
2019-02-06T00:17:09.428Z,2.20
2019-02-06T00:19:11.358Z,2.20
2019-02-06T00:21:13.447Z,2.20
2019-02-06T00:23:15.245Z,2.20
2019-02-06T00:25:17.076Z,2.20
2019-02-06T00:27:18.782Z,2.20
2019-02-06T00:29:20.549Z,2.30
2019-02-06T00:31:22.509Z,2.20
2019-02-06T00:33:24.249Z,2.30
2019-02-06T00:35:26.294Z,2.30
2019-02-06T00:37:28.171Z,2.30
2019-02-06T00:39:30.202Z,2.30
2019-02-06T00:41:32.181Z,2.30
2019-02-06T00:43:34.089Z,2.30
2019-02-06T00:45:35.778Z,2.30
2019-02-06T00:47:37.888Z,2.30
2019-02-06T00:49:48.113Z,2.30
2019-02-06T00:51:49.834Z,2.30
2019-02-06T00:53:51.642Z,2.30
2019-02-06T00:55:53.367Z,2.30
2019-02-06T00:57:55.472Z,2.30
2019-02-06T00:59:58.554Z,2.40
2019-02-06T01:02:00.498Z,2.40
2019-02-06T01:04:03.105Z,2.40
2019-02-06T01:06:05.027Z,2.50
2019-02-06T01:08:07.029Z,2.50
2019-02-06T01:10:10.983Z,2.40
2019-02-06T01:12:12.789Z,2.50
2019-02-06T01:14:14.503Z,2.50
2019-02-06T01:16:16.345Z,2.50
2019-02-06T01:18:18.158Z,2.60
2019-02-06T01:20:19.993Z,2.60
2019-02-06T01:22:21.925Z,2.60
2019-02-06T01:24:24.034Z,2.60
2019-02-06T01:26:25.740Z,2.60
2019-02-06T01:28:27.593Z,2.60
2019-02-06T01:30:33.930Z,2.60
2019-02-06T01:32:35.633Z,2.60
2019-02-06T01:34:37.586Z,2.60
2019-02-06T01:36:39.440Z,2.60
2019-02-06T01:38:41.354Z,2.60
2019-02-06T01:40:43.443Z,2.70
2019-02-06T01:42:45.356Z,2.70
2019-02-06T01:44:47.073Z,2.70
2019-02-06T01:46:48.906Z,2.70
2019-02-06T01:48:50.629Z,2.80
2019-02-06T01:50:52.635Z,2.80
2019-02-06T01:52:54.564Z,2.90
2019-02-06T01:54:56.275Z,2.90
2019-02-06T01:56:58.115Z,2.90
2019-02-06T01:59:00.133Z,2.90
2019-02-06T02:01:01.966Z,2.90
2019-02-06T02:03:03.890Z,2.90
2019-02-06T02:05:05.903Z,3.00
2019-02-06T02:07:07.914Z,3.00
2019-02-06T02:09:19.033Z,3.00
2019-02-06T02:11:20.938Z,3.00
2019-02-06T02:13:22.740Z,3.00
2019-02-06T02:15:24.888Z,3.10
2019-02-06T02:17:27.053Z,3.00
2019-02-06T02:19:28.757Z,3.00
2019-02-06T02:21:31.007Z,3.00
2019-02-06T02:23:32.924Z,3.10
2019-02-06T02:25:34.802Z,3.10
2019-02-06T02:27:36.741Z,3.10
2019-02-06T02:29:39.716Z,3.10
2019-02-06T02:31:41.531Z,3.20
2019-02-06T02:33:43.648Z,3.20
2019-02-06T02:35:45.861Z,3.20
2019-02-06T02:37:47.768Z,3.20
2019-02-06T02:39:49.641Z,3.20
2019-02-06T02:41:51.340Z,3.20
2019-02-06T02:43:53.346Z,3.20
2019-02-06T02:45:55.166Z,3.20
2019-02-06T02:47:56.975Z,3.20
2019-02-06T02:49:58.698Z,3.20
2019-02-06T02:52:00.543Z,3.20
2019-02-06T02:54:02.345Z,3.20
2019-02-06T02:56:04.260Z,3.20
2019-02-06T02:58:06.200Z,3.30
2019-02-06T03:00:12.571Z,3.30
2019-02-06T03:02:34.065Z,3.30
2019-02-06T03:04:40.736Z,3.30
2019-02-06T03:06:42.474Z,3.40
2019-02-06T03:08:44.262Z,3.40
2019-02-06T03:10:45.960Z,3.30
2019-02-06T03:15:51.374Z,3.40
2019-02-06T03:17:53.204Z,3.40
2019-02-06T03:19:55.018Z,3.40
2019-02-06T03:21:56.829Z,3.40
2019-02-06T03:23:58.662Z,3.40
2019-02-06T03:26:00.577Z,3.50
2019-02-06T03:28:03.414Z,3.50
2019-02-06T03:30:07.089Z,3.50
2019-02-06T03:32:10.716Z,3.60
2019-02-06T03:34:12.435Z,3.60
2019-02-06T03:36:14.509Z,3.60
2019-02-06T03:38:16.415Z,3.50
2019-02-06T03:40:18.473Z,3.60
2019-02-06T03:42:20.216Z,3.60
2019-02-06T03:44:21.926Z,3.50
2019-02-06T03:46:23.634Z,3.50
2019-02-06T03:48:25.465Z,3.60
2019-02-06T03:50:27.287Z,3.50
2019-02-06T03:52:28.983Z,3.60
2019-02-06T03:54:30.957Z,3.50
2019-02-06T03:56:32.856Z,3.50
2019-02-06T03:58:34.570Z,3.50
2019-02-06T04:00:36.464Z,3.50
2019-02-06T04:02:38.274Z,3.60
2019-02-06T04:04:39.996Z,3.50
2019-02-06T04:06:53.379Z,3.50
2019-02-06T04:08:45.739Z,3.40
2019-02-06T04:10:47.489Z,3.40
2019-02-06T04:12:49.313Z,3.40
2019-02-06T04:14:51.026Z,3.40
2019-02-06T04:16:53.116Z,3.40
2019-02-06T04:18:54.837Z,3.40
2019-02-06T04:20:56.671Z,3.30
2019-02-06T04:22:58.473Z,3.30
2019-02-06T04:25:00.211Z,3.30
2019-02-06T04:27:01.997Z,3.30
2019-02-06T04:29:03.790Z,3.20
2019-02-06T04:31:05.590Z,3.10
2019-02-06T04:33:07.883Z,3.10
2019-02-06T04:35:10.460Z,3.20
2019-02-06T04:37:12.261Z,3.20
2019-02-06T04:39:14.002Z,3.10
2019-02-06T04:41:16.017Z,3.10
2019-02-06T04:43:17.725Z,3.10
2019-02-06T04:45:19.444Z,3.10
2019-02-06T04:47:21.158Z,3.10
2019-02-06T04:49:22.856Z,3.10
2019-02-06T04:51:24.619Z,3.10
2019-02-06T04:53:28.142Z,3.10
2019-02-06T04:55:30.025Z,3.10
2019-02-06T04:57:31.721Z,3.10
2019-02-06T04:59:33.439Z,3.10
2019-02-06T05:01:35.262Z,3.10
2019-02-06T05:03:36.982Z,3.10
2019-02-06T05:05:38.685Z,3.00
2019-02-06T05:07:42.156Z,3.00
2019-02-06T05:09:44.183Z,3.00
2019-02-06T05:11:45.889Z,3.00
2019-02-06T05:13:47.758Z,3.00
2019-02-06T05:15:49.750Z,2.90
2019-02-06T05:17:51.465Z,2.90
2019-02-06T05:19:53.544Z,2.80
2019-02-06T05:21:55.249Z,2.80
2019-02-06T05:23:57.309Z,2.80
2019-02-06T05:25:59.138Z,2.80
2019-02-06T05:28:00.953Z,2.80
2019-02-06T05:30:04.646Z,2.80
2019-02-06T05:32:06.475Z,2.80
2019-02-06T05:34:08.339Z,2.80
2019-02-06T05:36:10.153Z,2.80
2019-02-06T05:38:11.953Z,2.80
2019-02-06T05:40:13.869Z,2.70
2019-02-06T05:42:16.098Z,2.70
2019-02-06T05:44:17.865Z,2.70
2019-02-06T05:46:19.598Z,2.70
2019-02-06T05:48:21.423Z,2.70
2019-02-06T05:50:23.667Z,2.60
2019-02-06T05:52:25.585Z,2.60
2019-02-06T05:54:27.486Z,2.60
2019-02-06T05:56:29.193Z,2.60
2019-02-06T05:58:31.117Z,2.60
2019-02-06T06:00:44.718Z,2.70
2019-02-06T06:02:46.485Z,2.70
2019-02-06T06:04:50.462Z,2.70
2019-02-06T06:06:52.180Z,2.70
2019-02-06T06:08:54.006Z,2.80
2019-02-06T06:10:55.734Z,2.80
2019-02-06T06:12:57.561Z,2.80
2019-02-06T06:14:59.275Z,2.80
2019-02-06T06:17:01.010Z,2.90
2019-02-06T06:19:03.431Z,2.80
2019-02-06T06:21:05.373Z,2.80
2019-02-06T06:23:07.082Z,2.80
2019-02-06T06:25:09.328Z,2.80
2019-02-06T06:27:11.040Z,2.80
2019-02-06T06:29:12.845Z,2.80
2019-02-06T06:31:14.918Z,2.80
2019-02-06T06:33:16.677Z,2.80
2019-02-06T06:35:18.614Z,2.90
2019-02-06T06:37:20.550Z,2.80
2019-02-06T06:39:25.509Z,2.80
2019-02-06T06:41:27.509Z,2.80
2019-02-06T06:43:29.416Z,2.80
2019-02-06T06:45:31.421Z,2.80
2019-02-06T06:47:33.228Z,2.80
2019-02-06T06:49:34.960Z,2.70
2019-02-06T06:51:36.763Z,2.70
2019-02-06T06:53:38.477Z,2.70
2019-02-06T06:55:40.203Z,2.70
2019-02-06T06:57:42.382Z,2.70
2019-02-06T06:59:44.198Z,2.80
2019-02-06T07:01:46.033Z,2.80
2019-02-06T07:03:47.769Z,2.80
2019-02-06T07:05:49.782Z,2.80
2019-02-06T07:07:53.056Z,2.70
2019-02-06T07:09:55.576Z,2.80
2019-02-06T07:11:57.362Z,2.70
2019-02-06T07:13:59.098Z,2.80
2019-02-06T07:16:01.097Z,2.80
2019-02-06T07:18:03.795Z,2.80
2019-02-06T07:20:07.093Z,2.80
2019-02-06T07:22:08.919Z,2.90
2019-02-06T07:24:10.769Z,2.80
2019-02-06T07:26:12.540Z,2.80
2019-02-06T07:28:14.352Z,2.80
2019-02-06T07:30:31.404Z,2.80
2019-02-06T07:32:36.148Z,2.80
2019-02-06T07:34:36.770Z,2.90
2019-02-06T07:36:38.605Z,2.90
2019-02-06T07:38:40.881Z,2.90
2019-02-06T07:40:42.582Z,2.90
2019-02-06T07:42:44.473Z,3.00
2019-02-06T07:44:46.339Z,3.00
2019-02-06T07:46:52.189Z,3.00
2019-02-06T07:48:54.189Z,3.00
2019-02-06T07:50:56.502Z,3.00
2019-02-06T07:52:58.498Z,3.00
2019-02-06T07:55:00.433Z,3.00
2019-02-06T07:57:06.322Z,3.00
2019-02-06T07:59:10.521Z,3.00
2019-02-06T08:01:12.457Z,3.00
2019-02-06T08:03:14.488Z,3.10
2019-02-06T08:05:17.242Z,3.10
2019-02-06T08:07:20.071Z,3.20
2019-02-06T08:09:22.156Z,3.10
2019-02-06T08:11:24.394Z,3.10
2019-02-06T08:13:26.407Z,3.10
2019-02-06T08:15:28.413Z,3.20
2019-02-06T08:17:31.029Z,3.20
2019-02-06T08:19:32.735Z,3.30
2019-02-06T08:21:34.434Z,3.20
2019-02-06T08:23:36.580Z,3.20
2019-02-06T08:25:38.492Z,3.30
2019-02-06T08:27:40.955Z,3.30
2019-02-06T08:29:42.825Z,3.30
2019-02-06T08:31:54.138Z,3.20
2019-02-06T08:33:56.133Z,3.30
2019-02-06T08:35:57.881Z,3.30
2019-02-06T08:38:08.233Z,3.40
2019-02-06T08:40:10.279Z,3.40
2019-02-06T08:42:12.257Z,3.40
2019-02-06T08:44:14.417Z,3.40
2019-02-06T08:46:34.246Z,3.40
2019-02-06T08:48:35.963Z,3.40
2019-02-06T08:50:37.775Z,3.50
2019-02-06T08:52:42.705Z,3.60
2019-02-06T08:54:44.642Z,3.50
2019-02-06T08:56:46.557Z,3.60
2019-02-06T08:58:48.257Z,3.70
2019-02-06T09:00:50.073Z,3.70
2019-02-06T09:02:52.025Z,3.70
2019-02-06T09:04:58.417Z,3.70
2019-02-06T09:07:03.298Z,3.70
2019-02-06T09:09:08.781Z,3.70
2019-02-06T09:11:11.771Z,3.70
2019-02-06T09:13:13.816Z,3.70
2019-02-06T09:15:15.983Z,3.70
2019-02-06T09:17:17.887Z,3.70
2019-02-06T09:19:19.761Z,3.80
2019-02-06T09:21:21.569Z,3.90
2019-02-06T09:23:23.708Z,3.90
2019-02-06T09:25:25.654Z,3.90
2019-02-06T09:27:27.361Z,3.90
2019-02-06T09:29:29.420Z,4.00
2019-02-06T09:31:31.449Z,3.90
2019-02-06T09:33:33.159Z,4.00
2019-02-06T09:35:35.038Z,4.10
2019-02-06T09:37:36.946Z,4.10
2019-02-06T09:39:41.349Z,4.10
2019-02-06T09:41:43.361Z,4.10
2019-02-06T09:43:45.177Z,4.10
2019-02-06T09:45:46.881Z,4.20
2019-02-06T09:47:49.361Z,4.20
2019-02-06T09:49:51.194Z,4.30
2019-02-06T09:51:52.902Z,4.40
2019-02-06T09:54:06.953Z,4.50
2019-02-06T09:56:08.921Z,4.50
2019-02-06T09:58:10.845Z,4.60
2019-02-06T10:00:16.304Z,4.60
2019-02-06T10:02:18.097Z,4.60
2019-02-06T10:04:19.826Z,4.60
2019-02-06T10:06:21.987Z,4.70
2019-02-06T10:08:24.096Z,4.70
2019-02-06T10:10:26.181Z,4.80
2019-02-06T10:12:27.937Z,4.80
2019-02-06T10:14:29.750Z,4.90
2019-02-06T10:16:31.445Z,4.90
2019-02-06T10:18:33.179Z,5.00
2019-02-06T10:20:37.660Z,5.00
2019-02-06T10:22:39.593Z,5.00
2019-02-06T10:24:41.458Z,5.00
2019-02-06T10:26:43.274Z,5.10
2019-02-06T10:28:45.197Z,5.10
2019-02-06T10:30:48.872Z,5.20
2019-02-06T10:32:50.809Z,5.20
2019-02-06T10:34:52.973Z,5.30
2019-02-06T10:36:54.700Z,5.30
2019-02-06T10:38:56.601Z,5.40
2019-02-06T10:40:58.525Z,5.40
2019-02-06T10:43:00.457Z,5.50
2019-02-06T10:45:03.259Z,5.50
2019-02-06T10:47:05.161Z,5.50
2019-02-06T10:49:07.153Z,5.50
2019-02-06T10:51:15.194Z,5.50
2019-02-06T10:53:17.441Z,5.50
2019-02-06T10:55:19.397Z,5.50
2019-02-06T10:57:23.263Z,5.50
2019-02-06T10:59:24.996Z,5.50
2019-02-06T11:01:27.049Z,5.50
2019-02-06T11:03:28.870Z,5.50
2019-02-06T11:05:30.829Z,5.40
2019-02-06T11:07:32.835Z,5.40
2019-02-06T11:09:45.770Z,5.30
2019-02-06T11:11:38.481Z,5.20
2019-02-06T11:13:40.476Z,5.20
2019-02-06T11:15:42.213Z,5.10
2019-02-06T11:17:44.143Z,5.00
2019-02-06T11:19:46.274Z,5.00
2019-02-06T11:21:48.008Z,5.00
2019-02-06T11:23:49.845Z,5.00
2019-02-06T11:25:51.720Z,5.00
2019-02-06T11:27:53.638Z,5.00
2019-02-06T11:29:55.393Z,4.90
2019-02-06T11:31:57.145Z,4.90
2019-02-06T11:33:58.986Z,4.90
2019-02-06T11:38:31.148Z,4.80
2019-02-06T11:40:33.161Z,4.80
2019-02-06T11:42:34.868Z,4.80
2019-02-06T11:44:36.631Z,4.80
2019-02-06T11:46:38.324Z,4.80
2019-02-06T11:48:40.137Z,4.80
2019-02-06T11:53:27.484Z,4.80
2019-02-06T11:55:29.610Z,4.70
2019-02-06T11:57:31.558Z,4.60
2019-02-06T11:59:33.262Z,4.70
2019-02-06T12:01:39.487Z,4.60
2019-02-06T12:03:41.641Z,4.60
2019-02-06T12:05:44.331Z,4.60
2019-02-06T12:07:46.451Z,4.60
2019-02-06T12:09:50.078Z,4.60
2019-02-06T12:11:52.043Z,4.60
2019-02-06T12:13:53.777Z,4.60
2019-02-06T12:15:55.610Z,4.50
2019-02-06T12:17:57.397Z,4.50
2019-02-06T12:20:03.899Z,4.60
2019-02-06T12:22:05.789Z,4.60
2019-02-06T12:24:07.802Z,4.60
2019-02-06T12:26:09.774Z,4.60
2019-02-06T12:28:17.718Z,4.60
2019-02-06T12:30:45.882Z,4.60
2019-02-06T12:32:52.368Z,4.60
2019-02-06T12:34:53.090Z,4.60
2019-02-06T12:36:55.101Z,4.60
2019-02-06T12:39:00.289Z,4.60
2019-02-06T12:41:02.509Z,4.60
2019-02-06T12:43:05.029Z,4.60
2019-02-06T12:45:28.374Z,4.60
2019-02-06T12:47:30.391Z,4.70
2019-02-06T12:49:32.208Z,4.70
2019-02-06T12:51:34.285Z,4.60
2019-02-06T12:53:36.078Z,4.60
2019-02-06T12:55:38.161Z,4.70
2019-02-06T12:57:40.123Z,4.60
2019-02-06T12:59:50.600Z,4.60
2019-02-06T13:01:55.525Z,4.70
2019-02-06T13:04:04.656Z,4.60
2019-02-06T13:06:07.722Z,4.60
2019-02-06T13:08:19.998Z,4.60
2019-02-06T13:10:32.871Z,4.60
2019-02-06T13:12:27.392Z,4.60
2019-02-06T13:14:29.365Z,4.60
2019-02-06T13:16:31.104Z,4.60
2019-02-06T13:18:33.321Z,4.60
2019-02-06T13:20:35.380Z,4.60
2019-02-06T13:22:37.289Z,4.60
2019-02-06T13:24:39.017Z,4.60
2019-02-06T13:26:44.041Z,4.50
2019-02-06T13:28:44.741Z,4.50
2019-02-06T13:30:46.665Z,4.50
2019-02-06T13:32:48.789Z,4.50
2019-02-06T13:34:57.410Z,4.50
2019-02-06T13:36:59.499Z,4.50
2019-02-06T13:39:01.405Z,4.60
2019-02-06T13:41:04.786Z,4.60
2019-02-06T13:43:14.409Z,4.60
2019-02-06T13:45:21.362Z,4.60
2019-02-06T13:47:42.231Z,4.60
2019-02-06T13:49:46.876Z,4.60
2019-02-06T13:51:47.824Z,4.60
2019-02-06T13:53:49.769Z,4.60
2019-02-06T13:55:51.701Z,4.60
2019-02-06T13:57:53.673Z,4.60
2019-02-06T13:59:55.778Z,4.60
2019-02-06T14:01:57.541Z,4.60
2019-02-06T14:03:59.484Z,4.60
2019-02-06T14:06:01.803Z,4.60
2019-02-06T14:08:09.132Z,4.60
2019-02-06T14:10:12.655Z,4.70
2019-02-06T14:12:14.400Z,4.70
2019-02-06T14:14:16.217Z,4.70
2019-02-06T14:16:18.101Z,4.70
2019-02-06T14:18:20.422Z,4.70
2019-02-06T14:20:22.578Z,4.70
2019-02-06T14:22:26.003Z,4.70
2019-02-06T14:24:54.292Z,4.70
2019-02-06T14:27:38.698Z,4.70
2019-02-06T14:30:34.366Z,4.70
2019-02-06T14:33:01.847Z,4.70
2019-02-06T14:35:49.768Z,4.80
2019-02-06T14:38:25.124Z,4.80
2019-02-06T14:40:53.477Z,4.80
2019-02-06T14:43:36.828Z,4.80
2019-02-06T15:00:27.138Z,4.90
2019-02-06T15:03:20.060Z,4.90
2019-02-06T15:06:01.522Z,4.90
2019-02-06T15:09:04.031Z,5.00
2019-02-06T15:11:56.910Z,5.00
2019-02-06T15:14:39.460Z,5.00
2019-02-06T15:17:34.449Z,5.00
2019-02-06T15:19:55.265Z,5.00
2019-02-06T15:22:24.733Z,5.00
2019-02-06T15:24:51.594Z,5.00
2019-02-06T15:27:30.003Z,5.00
2019-02-06T15:30:19.021Z,5.00
2019-02-06T15:32:55.533Z,5.10
2019-02-06T15:35:34.388Z,5.00
2019-02-06T15:38:14.033Z,5.00
2019-02-06T15:40:44.510Z,5.00
2019-02-06T15:43:15.453Z,5.10
2019-02-06T15:45:48.142Z,5.10
2019-02-06T15:48:12.054Z,5.10
2019-02-06T15:51:16.865Z,5.10
2019-02-06T15:54:06.858Z,5.10
2019-02-06T15:56:56.509Z,5.10
2019-02-06T15:59:40.089Z,5.10
2019-02-06T16:02:30.024Z,5.10
2019-02-06T16:08:20.430Z,5.20
2019-02-06T16:10:48.002Z,5.10
2019-02-06T16:13:14.949Z,5.10
2019-02-06T16:15:32.681Z,5.10
2019-02-06T16:17:53.208Z,5.10
2019-02-06T16:20:42.855Z,5.10
2019-02-06T16:23:22.909Z,5.10
2019-02-06T16:25:50.826Z,5.10
2019-02-06T16:28:43.647Z,5.10
2019-02-06T16:31:21.500Z,5.10
2019-02-06T16:33:59.297Z,5.20
2019-02-06T16:36:55.776Z,5.10
2019-02-06T16:39:42.158Z,5.10
2019-02-06T16:42:08.527Z,5.10
2019-02-06T16:44:57.642Z,5.10
2019-02-06T16:47:14.423Z,5.20
2019-02-06T16:49:42.933Z,5.20
2019-02-06T16:52:23.935Z,5.10
2019-02-06T16:54:50.701Z,5.10
2019-02-06T16:57:30.134Z,5.20
2019-02-06T17:00:21.619Z,5.20
2019-02-06T17:03:05.852Z,5.10
2019-02-06T17:05:31.087Z,5.10
2019-02-06T17:07:52.941Z,5.20
2019-02-06T17:10:37.267Z,5.20
2019-02-06T17:13:18.377Z,5.10
2019-02-06T17:15:46.734Z,5.10
2019-02-06T17:18:26.524Z,5.10
2019-02-06T17:20:57.838Z,5.10
2019-02-06T17:23:34.939Z,5.10
2019-02-06T17:26:20.524Z,5.10
2019-02-06T17:29:03.259Z,5.10
2019-02-06T17:31:49.282Z,5.10
2019-02-06T17:34:47.072Z,5.10
2019-02-06T17:37:24.926Z,5.10
2019-02-06T17:40:16.781Z,5.10
2019-02-06T17:42:50.119Z,5.10
2019-02-06T17:45:34.738Z,5.10
2019-02-06T17:48:00.994Z,5.10
2019-02-06T17:50:33.551Z,5.00
2019-02-06T17:53:12.073Z,5.10
2019-02-06T17:55:22.259Z,5.10
2019-02-06T17:57:24.096Z,5.10
2019-02-06T17:59:25.811Z,5.10
2019-02-06T18:01:36.941Z,5.10
2019-02-06T18:03:45.542Z,5.10
2019-02-06T18:05:47.813Z,5.10
2019-02-06T18:07:49.711Z,5.10
2019-02-06T18:09:51.850Z,5.10
2019-02-06T18:11:53.669Z,5.10
2019-02-06T18:13:56.658Z,5.10
2019-02-06T18:15:59.027Z,5.10
2019-02-06T18:18:03.191Z,5.10
2019-02-06T18:20:34.321Z,5.10
2019-02-06T18:22:37.676Z,5.10
2019-02-06T18:24:46.445Z,5.10
2019-02-06T18:26:56.660Z,5.10
2019-02-06T18:28:58.383Z,5.20
2019-02-06T18:31:01.633Z,5.20
2019-02-06T18:33:04.347Z,5.20
2019-02-06T18:35:06.833Z,5.10
2019-02-06T18:37:09.399Z,5.10
2019-02-06T18:39:12.907Z,5.10
2019-02-06T18:41:14.818Z,5.20
2019-02-06T18:43:16.745Z,5.10
2019-02-06T18:45:22.029Z,5.20
2019-02-06T18:47:24.124Z,5.10
2019-02-06T18:49:26.033Z,5.10
2019-02-06T18:51:27.853Z,5.20
2019-02-06T18:53:29.758Z,5.20
2019-02-06T18:55:31.577Z,5.20
2019-02-06T18:57:41.247Z,5.20
2019-02-06T18:59:43.494Z,5.20
2019-02-06T19:01:45.479Z,5.20
2019-02-06T19:03:47.531Z,5.20
2019-02-06T19:05:56.644Z,5.20
2019-02-06T19:07:58.578Z,5.20
2019-02-06T19:10:00.588Z,5.20
2019-02-06T19:12:03.035Z,5.20
2019-02-06T19:14:05.667Z,5.20
2019-02-06T19:16:07.670Z,5.20
2019-02-06T19:18:09.954Z,5.20
2019-02-06T19:20:12.221Z,5.20
2019-02-06T19:22:14.024Z,5.30
2019-02-06T19:24:17.801Z,5.30
2019-02-06T19:26:19.517Z,5.30
2019-02-06T19:28:21.574Z,5.30
2019-02-06T19:30:28.769Z,5.20
2019-02-06T19:32:30.909Z,5.20
2019-02-06T19:34:32.772Z,5.20
2019-02-06T19:36:36.685Z,5.20
2019-02-06T19:38:38.581Z,5.20
2019-02-06T19:40:41.691Z,5.20
2019-02-06T19:42:43.741Z,5.30
2019-02-06T19:44:45.682Z,5.30
2019-02-06T19:46:47.612Z,5.30
2019-02-06T19:48:49.442Z,5.30
2019-02-06T19:50:52.782Z,5.30
2019-02-06T19:52:57.325Z,5.30
2019-02-06T19:54:59.246Z,5.30
2019-02-06T19:57:01.541Z,5.30
2019-02-06T19:59:03.766Z,5.30
2019-02-06T20:01:05.918Z,5.30
2019-02-06T20:03:08.365Z,5.30
2019-02-06T20:05:12.459Z,5.30
2019-02-06T20:07:14.571Z,5.20
2019-02-06T20:09:16.788Z,5.30
2019-02-06T20:11:18.909Z,5.30
2019-02-06T20:13:20.819Z,5.30
2019-02-06T20:15:23.226Z,5.30
2019-02-06T20:17:24.969Z,5.30
2019-02-06T20:19:30.945Z,5.30
2019-02-06T20:21:32.787Z,5.30
2019-02-06T20:23:34.820Z,5.30
2019-02-06T20:25:45.336Z,5.30
2019-02-06T20:27:51.899Z,5.30
2019-02-06T20:29:55.081Z,5.30
2019-02-06T20:31:56.821Z,5.30
2019-02-06T20:33:59.276Z,5.30
2019-02-06T20:36:01.151Z,5.30
2019-02-06T20:38:03.300Z,5.30
2019-02-06T20:40:09.287Z,5.30
2019-02-06T20:42:11.510Z,5.30
2019-02-06T20:44:13.370Z,5.30
2019-02-06T20:46:15.322Z,5.30
2019-02-06T20:48:24.630Z,5.40
2019-02-06T20:50:27.549Z,5.40
2019-02-06T20:52:41.252Z,5.40
2019-02-06T20:54:43.205Z,5.30
2019-02-06T20:56:47.542Z,5.30
2019-02-06T20:59:11.754Z,5.30
2019-02-06T21:01:13.501Z,5.30
2019-02-06T21:03:15.581Z,5.30
2019-02-06T21:05:17.958Z,5.40
2019-02-06T21:07:19.678Z,5.40
2019-02-06T21:09:29.094Z,5.40
2019-02-06T21:11:30.812Z,5.40
2019-02-06T21:13:33.913Z,5.40
2019-02-06T21:15:36.535Z,5.40
2019-02-06T21:17:38.370Z,5.30
2019-02-06T21:19:40.250Z,5.30
2019-02-06T21:21:42.196Z,5.30
2019-02-06T21:23:44.513Z,5.30
2019-02-06T21:25:52.172Z,5.30
2019-02-06T21:27:53.876Z,5.30
2019-02-06T21:29:55.784Z,5.40
2019-02-06T21:31:57.693Z,5.40
2019-02-06T21:33:59.402Z,5.40
2019-02-06T21:36:01.130Z,5.40
2019-02-06T21:38:03.162Z,5.40
2019-02-06T21:40:13.923Z,5.40
2019-02-06T21:42:15.628Z,5.40
2019-02-06T21:44:23.409Z,5.40
2019-02-06T21:46:25.123Z,5.40
2019-02-06T21:48:26.867Z,5.40
2019-02-06T21:50:34.777Z,5.40
2019-02-06T21:52:36.829Z,5.50
2019-02-06T21:54:38.548Z,5.40
2019-02-06T21:56:40.356Z,5.40
2019-02-06T21:58:42.169Z,5.40
2019-02-06T22:00:50.242Z,5.40
2019-02-06T22:02:52.390Z,5.40
2019-02-06T22:04:54.097Z,5.40
2019-02-06T22:06:55.813Z,5.40
2019-02-06T22:08:57.664Z,5.40
2019-02-06T22:10:59.607Z,5.40
2019-02-06T22:13:01.514Z,5.40
2019-02-06T22:15:06.411Z,5.50
2019-02-06T22:17:08.231Z,5.50
2019-02-06T22:19:10.140Z,5.40
2019-02-06T22:21:12.315Z,5.50
2019-02-06T22:23:14.045Z,5.50
2019-02-06T22:25:15.965Z,5.50
2019-02-06T22:27:27.041Z,5.50
2019-02-06T22:29:31.465Z,5.50
2019-02-06T22:31:33.697Z,5.60
2019-02-06T22:33:35.419Z,5.50
2019-02-06T22:35:37.182Z,5.60
2019-02-06T22:37:38.979Z,5.60
2019-02-06T22:39:40.693Z,5.60
2019-02-06T22:41:42.722Z,5.60
2019-02-06T22:43:44.434Z,5.70
2019-02-06T22:45:46.257Z,5.70
2019-02-06T22:47:48.137Z,5.70
2019-02-06T22:49:50.355Z,5.60
2019-02-06T22:51:52.073Z,5.60
2019-02-06T22:53:53.830Z,5.60
2019-02-06T22:55:55.658Z,5.60
2019-02-06T22:57:57.567Z,5.70
2019-02-06T22:59:59.477Z,5.70
2019-02-06T23:02:01.613Z,5.70
2019-02-06T23:04:04.242Z,5.70
2019-02-06T23:06:07.622Z,5.70
2019-02-06T23:08:09.537Z,5.70
2019-02-06T23:10:11.741Z,5.70
2019-02-06T23:12:13.469Z,5.70
2019-02-06T23:14:17.422Z,5.70
2019-02-06T23:16:19.226Z,5.70
2019-02-06T23:18:21.128Z,5.70
2019-02-06T23:20:23.078Z,5.60
2019-02-06T23:22:25.010Z,5.70
2019-02-06T23:24:29.839Z,5.70
2019-02-06T23:26:31.560Z,5.70
2019-02-06T23:28:33.281Z,5.70
2019-02-06T23:30:35.206Z,5.70
2019-02-06T23:32:37.200Z,5.70
2019-02-06T23:34:39.292Z,5.70
2019-02-06T23:36:41.190Z,5.70
2019-02-06T23:38:43.018Z,5.70
2019-02-06T23:40:44.841Z,5.70
2019-02-06T23:42:46.555Z,5.80
2019-02-06T23:44:48.281Z,5.80
2019-02-06T23:46:50.105Z,5.70
2019-02-06T23:48:51.815Z,5.80
2019-02-06T23:50:53.676Z,5.80
2019-02-06T23:52:55.475Z,5.80
2019-02-06T23:54:57.183Z,5.80
2019-02-06T23:56:59.037Z,5.80
2019-02-06T23:59:00.946Z,5.80
